createdAt,value
2022-10-01T00:02:15.917Z,100.00
2022-10-01T00:04:46.183Z,100.00
2022-10-01T00:07:15.471Z,100.00
2022-10-01T00:09:43.864Z,100.00
2022-10-01T00:12:15.951Z,100.00
2022-10-01T00:14:44.720Z,100.00
2022-10-01T00:17:14.222Z,100.00
2022-10-01T00:19:42.427Z,100.00
2022-10-01T00:22:10.623Z,100.00
2022-10-01T00:24:38.932Z,100.00
2022-10-01T00:27:07.099Z,100.00
2022-10-01T00:29:35.964Z,99.56
2022-10-01T00:32:04.149Z,99.10
2022-10-01T00:34:33.860Z,97.79
2022-10-01T00:37:01.964Z,98.71
2022-10-01T00:39:30.068Z,98.50
2022-10-01T00:41:58.092Z,98.74
2022-10-01T00:44:32.922Z,98.39
2022-10-01T00:47:06.120Z,98.26
2022-10-01T00:49:39.772Z,98.53
2022-10-01T00:52:11.908Z,97.11
2022-10-01T00:54:45.290Z,98.08
2022-10-01T00:57:15.297Z,96.85
2022-10-01T00:59:43.917Z,96.94
2022-10-01T01:02:12.215Z,97.69
2022-10-01T01:04:42.140Z,98.27
2022-10-01T01:07:10.879Z,98.77
2022-10-01T01:09:41.640Z,98.42
2022-10-01T01:12:20.251Z,97.41
2022-10-01T01:15:02.743Z,97.03
2022-10-01T01:17:36.358Z,96.95
2022-10-01T01:20:24.218Z,96.27
2022-10-01T01:23:00.616Z,95.70
2022-10-01T01:25:38.428Z,95.12
2022-10-01T01:28:21.135Z,94.46
2022-10-01T01:30:54.463Z,92.95
2022-10-01T01:33:26.308Z,92.74
2022-10-01T01:35:58.545Z,91.54
2022-10-01T01:38:29.462Z,91.27
2022-10-01T01:41:01.892Z,91.93
2022-10-01T01:43:34.651Z,91.02
2022-10-01T01:46:06.568Z,89.96
2022-10-01T01:48:36.928Z,88.81
2022-10-01T01:51:12.439Z,87.47
2022-10-01T01:53:48.045Z,87.26
2022-10-01T01:56:17.338Z,84.45
2022-10-01T01:58:47.440Z,84.96
2022-10-01T02:01:34.408Z,85.40
2022-10-01T02:04:05.648Z,85.71
2022-10-01T02:06:44.317Z,85.82
2022-10-01T02:09:18.987Z,85.65
2022-10-01T02:11:54.470Z,86.35
2022-10-01T02:14:32.811Z,85.70
2022-10-01T02:17:07.136Z,85.70
2022-10-01T02:19:40.536Z,85.93
2022-10-01T02:22:14.363Z,85.70
2022-10-01T02:24:44.730Z,86.07
2022-10-01T02:27:20.581Z,85.20
2022-10-01T02:29:52.203Z,85.59
2022-10-01T02:32:21.847Z,85.76
2022-10-01T02:34:52.375Z,85.77
2022-10-01T02:37:25.831Z,85.62
2022-10-01T02:39:56.476Z,84.86
2022-10-01T02:42:28.720Z,83.17
2022-10-01T02:45:02.860Z,83.94
2022-10-01T02:47:35.898Z,84.17
2022-10-01T02:50:05.325Z,83.85
2022-10-01T02:52:39.681Z,82.01
2022-10-01T02:55:11.920Z,82.71
2022-10-01T02:57:40.500Z,81.73
2022-10-01T03:00:14.385Z,82.44
2022-10-01T03:02:42.431Z,80.48
2022-10-01T03:05:11.149Z,80.96
2022-10-01T03:07:40.990Z,80.37
2022-10-01T03:10:11.112Z,80.59
2022-10-01T03:12:45.266Z,80.62
2022-10-01T03:15:16.923Z,78.34
2022-10-01T03:17:45.202Z,79.63
2022-10-01T03:20:13.754Z,78.17
2022-10-01T03:22:41.898Z,79.12
2022-10-01T03:25:12.861Z,77.87
2022-10-01T03:27:41.278Z,79.35
2022-10-01T03:30:10.490Z,79.03
2022-10-01T03:32:40.198Z,77.84
2022-10-01T03:35:10.668Z,78.23
2022-10-01T03:37:38.902Z,76.32
2022-10-01T03:40:08.351Z,76.79
2022-10-01T03:42:36.473Z,76.03
2022-10-01T03:45:05.052Z,75.26
2022-10-01T03:47:33.308Z,75.40
2022-10-01T03:50:06.094Z,76.17
2022-10-01T03:52:34.291Z,76.38
2022-10-01T03:55:02.568Z,76.12
2022-10-01T03:57:30.794Z,74.01
2022-10-01T03:59:59.049Z,74.86
2022-10-01T04:02:27.858Z,74.58
2022-10-01T04:04:58.182Z,75.03
2022-10-01T04:07:27.783Z,75.17
2022-10-01T04:09:55.952Z,74.81
2022-10-01T04:12:24.108Z,75.67
2022-10-01T04:14:52.217Z,75.84
2022-10-01T04:17:20.903Z,74.53
2022-10-01T04:19:49.007Z,73.90
2022-10-01T04:22:17.174Z,74.71
2022-10-01T04:24:46.804Z,73.23
2022-10-01T04:27:15.505Z,73.48
2022-10-01T04:29:43.703Z,73.60
2022-10-01T04:32:11.979Z,73.14
2022-10-01T04:34:55.217Z,73.57
2022-10-01T04:37:24.830Z,73.74
2022-10-01T04:39:58.409Z,74.05
2022-10-01T04:42:26.611Z,72.74
2022-10-01T04:44:54.896Z,73.22
2022-10-01T04:47:23.146Z,73.02
2022-10-01T04:49:51.336Z,72.57
2022-10-01T04:52:19.431Z,72.02
2022-10-01T04:54:47.448Z,71.99
2022-10-01T04:57:16.947Z,72.88
2022-10-01T04:59:45.251Z,72.12
2022-10-01T05:02:15.605Z,71.71
2022-10-01T05:04:43.979Z,71.02
2022-10-01T05:07:12.217Z,69.53
2022-10-01T05:09:40.406Z,70.07
2022-10-01T05:12:08.798Z,70.20
2022-10-01T05:14:38.556Z,70.89
2022-10-01T05:17:07.229Z,68.99
2022-10-01T05:19:38.328Z,68.49
2022-10-01T05:22:06.553Z,70.20
2022-10-01T05:24:34.626Z,71.29
2022-10-01T05:27:02.854Z,70.81
2022-10-01T05:29:33.758Z,73.58
2022-10-01T05:32:03.322Z,73.06
2022-10-01T05:34:32.082Z,75.41
2022-10-01T05:37:00.992Z,77.80
2022-10-01T05:39:29.178Z,77.61
2022-10-01T05:42:01.493Z,79.66
2022-10-01T05:44:38.030Z,82.18
2022-10-01T05:47:08.660Z,84.14
2022-10-01T05:49:36.907Z,85.21
2022-10-01T05:52:05.387Z,87.01
2022-10-01T05:54:33.550Z,86.52
2022-10-01T05:57:01.642Z,89.64
2022-10-01T05:59:31.837Z,89.70
2022-10-01T06:02:00.470Z,90.58
2022-10-01T06:04:30.028Z,92.21
2022-10-01T06:06:58.172Z,92.17
2022-10-01T06:09:26.519Z,93.12
2022-10-01T06:11:55.400Z,93.06
2022-10-01T06:14:23.654Z,94.50
2022-10-01T06:16:55.119Z,92.74
2022-10-01T06:19:23.390Z,94.57
2022-10-01T06:21:53.249Z,96.79
2022-10-01T06:24:21.564Z,94.29
2022-10-01T06:36:13.261Z,93.77
2022-10-01T06:38:43.235Z,94.24
2022-10-01T06:41:11.775Z,95.04
2022-10-01T06:43:40.197Z,96.30
2022-10-01T06:46:08.445Z,91.79
2022-10-01T06:48:37.321Z,92.32
2022-10-01T06:51:46.959Z,92.59
2022-10-01T06:54:29.358Z,91.88
2022-10-01T06:56:57.663Z,90.43
2022-10-01T06:59:27.090Z,90.87
2022-10-01T07:01:56.527Z,91.45
2022-10-01T07:04:25.359Z,90.56
2022-10-01T07:06:53.702Z,90.39
2022-10-01T07:09:25.319Z,90.09
2022-10-01T07:11:54.694Z,90.45
2022-10-01T07:14:22.991Z,89.63
2022-10-01T07:16:51.001Z,90.35
2022-10-01T07:19:19.078Z,87.73
2022-10-01T07:21:49.227Z,88.10
2022-10-01T07:24:17.275Z,88.25
2022-10-01T07:26:51.046Z,88.06
2022-10-01T07:29:19.068Z,87.57
2022-10-01T07:31:47.174Z,88.77
2022-10-01T07:34:15.212Z,86.95
2022-10-01T07:36:45.551Z,85.07
2022-10-01T07:39:13.645Z,85.44
2022-10-01T07:41:43.321Z,87.35
2022-10-01T07:44:12.964Z,86.76
2022-10-01T07:46:41.499Z,87.38
2022-10-01T07:49:10.488Z,87.83
2022-10-01T07:51:38.500Z,89.78
2022-10-01T07:54:07.282Z,89.18
2022-10-01T07:56:35.397Z,88.06
2022-10-01T07:59:03.507Z,87.84
2022-10-01T08:01:33.522Z,86.81
2022-10-01T08:04:22.200Z,88.43
2022-10-01T08:06:50.264Z,86.76
2022-10-01T08:09:18.467Z,87.14
2022-10-01T08:11:48.287Z,84.66
2022-10-01T08:14:19.294Z,84.22
2022-10-01T08:16:48.771Z,83.30
2022-10-01T08:19:17.271Z,80.78
2022-10-01T08:21:45.227Z,80.79
2022-10-01T08:24:13.248Z,80.08
2022-10-01T08:26:41.344Z,78.46
2022-10-01T08:29:11.638Z,79.69
2022-10-01T08:31:42.859Z,80.35
2022-10-01T08:34:12.260Z,79.54
2022-10-01T08:36:40.268Z,79.16
2022-10-01T08:39:10.228Z,78.91
2022-10-01T08:41:49.927Z,77.53
2022-10-01T08:44:22.933Z,77.73
2022-10-01T08:46:53.035Z,77.68
2022-10-01T08:49:27.776Z,77.52
2022-10-01T08:52:02.531Z,76.35
2022-10-01T08:54:36.611Z,76.24
2022-10-01T08:57:09.501Z,77.36
2022-10-01T08:59:41.765Z,77.91
2022-10-01T09:02:24.625Z,76.85
2022-10-01T09:05:01.293Z,75.35
2022-10-01T09:07:51.074Z,77.07
2022-10-01T09:10:29.044Z,76.44
2022-10-01T09:13:16.904Z,76.12
2022-10-01T09:15:52.046Z,76.92
2022-10-01T09:18:33.708Z,76.10
2022-10-01T09:21:04.001Z,77.61
2022-10-01T09:23:38.704Z,77.47
2022-10-01T09:26:11.491Z,75.79
2022-10-01T09:28:42.159Z,77.43
2022-10-01T09:31:17.937Z,78.24
2022-10-01T09:33:53.227Z,78.56
2022-10-01T09:36:27.402Z,78.26
2022-10-01T09:39:06.429Z,77.91
2022-10-01T09:41:34.737Z,79.74
2022-10-01T09:44:03.043Z,77.55
2022-10-01T09:46:31.595Z,77.28
2022-10-01T09:49:05.123Z,79.61
2022-10-01T09:51:41.957Z,79.81
2022-10-01T09:54:17.737Z,77.77
2022-10-01T09:56:52.147Z,79.50
2022-10-01T09:59:25.584Z,80.71
2022-10-01T10:01:57.494Z,80.28
2022-10-01T10:04:25.998Z,80.01
2022-10-01T10:07:02.732Z,81.30
2022-10-01T10:09:33.015Z,81.31
2022-10-01T10:12:01.472Z,83.05
2022-10-01T10:14:33.304Z,83.85
2022-10-01T10:17:06.706Z,85.43
2022-10-01T10:19:35.609Z,86.06
2022-10-01T10:22:13.901Z,85.02
2022-10-01T10:24:43.001Z,85.86
2022-10-01T10:27:25.290Z,86.85
2022-10-01T10:30:02.884Z,88.20
2022-10-01T10:32:31.172Z,88.04
2022-10-01T10:35:05.825Z,88.20
2022-10-01T10:37:41.018Z,89.51
2022-10-01T10:40:09.694Z,89.78
2022-10-01T10:42:39.060Z,91.09
2022-10-01T10:45:17.788Z,91.65
2022-10-01T10:47:47.679Z,91.33
2022-10-01T10:50:31.436Z,90.29
2022-10-01T10:53:01.166Z,91.53
2022-10-01T10:55:31.788Z,90.99
2022-10-01T10:58:11.459Z,90.91
2022-10-01T11:00:47.809Z,92.04
2022-10-01T11:03:18.957Z,93.68
2022-10-01T11:05:51.614Z,93.87
2022-10-01T11:08:26.555Z,95.60
2022-10-01T11:11:07.461Z,96.84
2022-10-01T11:13:49.783Z,97.17
2022-10-01T11:16:38.196Z,98.11
2022-10-01T11:19:33.525Z,99.26
2022-10-01T11:22:22.935Z,99.29
2022-10-01T11:25:06.841Z,100.00
2022-10-01T11:27:46.871Z,100.00
2022-10-01T11:30:20.242Z,100.00
2022-10-01T11:33:02.999Z,100.00
2022-10-01T11:35:45.348Z,100.00
2022-10-01T11:38:39.756Z,100.00
2022-10-01T11:41:14.855Z,100.00
2022-10-01T11:43:45.972Z,100.00
2022-10-01T11:46:21.059Z,100.00
2022-10-01T11:48:57.352Z,100.00
2022-10-01T11:51:33.254Z,100.00
2022-10-01T11:54:07.351Z,100.00
2022-10-01T11:56:59.528Z,100.00
2022-10-01T11:59:34.756Z,100.00
2022-10-01T12:02:15.851Z,100.00
2022-10-01T12:04:50.176Z,100.00
2022-10-01T12:07:27.172Z,100.00
2022-10-01T12:10:02.759Z,100.00
2022-10-01T12:12:37.158Z,100.00
2022-10-01T12:15:11.308Z,100.00
2022-10-01T12:17:45.485Z,100.00
2022-10-01T12:20:24.583Z,100.00
2022-10-01T12:22:54.996Z,100.00
2022-10-01T12:25:30.157Z,100.00
2022-10-01T12:28:07.416Z,100.00
2022-10-01T12:30:43.093Z,100.00
2022-10-01T12:33:35.854Z,100.00
2022-10-01T12:36:13.595Z,100.00
2022-10-01T12:39:06.154Z,100.00
2022-10-01T12:41:46.255Z,100.00
2022-10-01T12:44:29.263Z,100.00
2022-10-01T12:47:12.616Z,100.00
2022-10-01T12:49:48.349Z,100.00
2022-10-01T12:52:26.280Z,100.00
2022-10-01T12:55:08.495Z,100.00
2022-10-01T12:57:47.685Z,100.00
2022-10-01T13:00:20.695Z,100.00
2022-10-01T13:03:27.329Z,100.00
2022-10-01T13:06:07.548Z,100.00
2022-10-01T13:08:49.173Z,100.00
2022-10-01T13:11:25.573Z,100.00
2022-10-01T13:13:54.815Z,100.00
2022-10-01T13:16:31.071Z,100.00
2022-10-01T13:19:05.351Z,100.00
2022-10-01T13:21:52.827Z,100.00
2022-10-01T13:24:27.591Z,100.00
2022-10-01T13:27:01.503Z,100.00
2022-10-01T13:29:45.247Z,100.00
2022-10-01T13:32:29.725Z,100.00
2022-10-01T13:34:58.935Z,100.00
2022-10-01T13:37:38.516Z,100.00
2022-10-01T13:40:24.817Z,100.00
2022-10-01T13:42:54.910Z,100.00
2022-10-01T13:45:27.660Z,100.00
2022-10-01T13:48:13.513Z,100.00
2022-10-01T13:50:43.210Z,100.00
2022-10-01T13:53:17.889Z,100.00
2022-10-01T13:55:47.954Z,100.00
2022-10-01T13:58:34.434Z,100.00
2022-10-01T14:01:04.866Z,100.00
2022-10-01T14:03:44.102Z,100.00
2022-10-01T14:06:19.611Z,100.00
2022-10-01T14:08:52.223Z,100.00
2022-10-01T14:11:44.066Z,100.00
2022-10-01T14:14:32.795Z,100.00
2022-10-01T14:17:04.196Z,100.00
2022-10-01T14:19:33.740Z,100.00
2022-10-01T14:22:17.601Z,100.00
2022-10-01T14:25:01.921Z,100.00
2022-10-01T14:27:36.359Z,100.00
2022-10-01T14:30:07.944Z,100.00
2022-10-01T14:32:52.351Z,100.00
2022-10-01T14:35:31.268Z,100.00
2022-10-01T14:38:01.654Z,100.00
2022-10-01T14:40:38.764Z,100.00
2022-10-01T14:43:17.781Z,100.00
2022-10-01T14:45:57.033Z,100.00
2022-10-01T14:48:26.065Z,100.00
2022-10-01T14:50:57.931Z,100.00
2022-10-01T14:53:28.145Z,100.00
2022-10-01T14:55:59.190Z,100.00
2022-10-01T14:58:31.368Z,100.00
2022-10-01T15:01:00.477Z,100.00
2022-10-01T15:03:28.587Z,100.00
2022-10-01T15:06:06.423Z,100.00
2022-10-01T15:08:42.204Z,100.00
2022-10-01T15:11:15.329Z,100.00
2022-10-01T15:13:45.800Z,100.00
2022-10-01T15:16:15.422Z,100.00
2022-10-01T15:18:48.196Z,100.00
2022-10-01T15:21:22.305Z,100.00
2022-10-01T15:23:50.892Z,100.00
2022-10-01T15:26:23.655Z,100.00
2022-10-01T15:29:02.292Z,100.00
2022-10-01T15:31:30.525Z,100.00
2022-10-01T15:34:01.323Z,100.00
2022-10-01T15:36:31.195Z,100.00
2022-10-01T15:39:00.759Z,100.00
2022-10-01T15:41:32.971Z,100.00
2022-10-01T15:44:04.263Z,100.00
2022-10-01T15:46:35.269Z,100.00
2022-10-01T15:49:18.155Z,100.00
2022-10-01T15:52:07.773Z,100.00
2022-10-01T15:54:37.204Z,100.00
2022-10-01T15:57:06.527Z,100.00
2022-10-01T15:59:35.931Z,100.00
2022-10-01T16:02:10.330Z,100.00
2022-10-01T16:04:38.665Z,100.00
2022-10-01T16:07:08.097Z,100.00
2022-10-01T16:09:36.113Z,100.00
2022-10-01T16:12:06.940Z,100.00
2022-10-01T16:14:39.434Z,100.00
2022-10-01T16:17:35.070Z,100.00
2022-10-01T16:20:43.362Z,100.00
2022-10-01T16:23:44.056Z,100.00
2022-10-01T16:26:33.324Z,100.00
2022-10-01T16:29:04.037Z,100.00
2022-10-01T16:31:32.763Z,100.00
2022-10-01T16:34:00.896Z,100.00
2022-10-01T16:36:35.055Z,100.00
2022-10-01T16:39:06.778Z,100.00
2022-10-01T16:41:35.559Z,100.00
2022-10-01T16:44:07.462Z,100.00
2022-10-01T16:46:36.883Z,100.00
2022-10-01T16:49:12.784Z,100.00
2022-10-01T16:51:42.393Z,100.00
2022-10-01T16:54:21.915Z,100.00
2022-10-01T16:56:52.829Z,100.00
2022-10-01T16:59:22.865Z,100.00
2022-10-01T17:01:55.779Z,100.00
2022-10-01T17:04:29.255Z,100.00
2022-10-01T17:06:59.779Z,100.00
2022-10-01T17:09:29.268Z,100.00
2022-10-01T17:11:58.069Z,100.00
2022-10-01T17:14:26.343Z,100.00
2022-10-01T17:16:54.597Z,100.00
2022-10-01T17:19:23.111Z,100.00
2022-10-01T17:21:51.143Z,100.00
2022-10-01T17:24:19.152Z,100.00
2022-10-01T17:26:48.478Z,100.00
2022-10-01T17:29:16.586Z,100.00
2022-10-01T17:31:47.927Z,100.00
2022-10-01T17:34:15.983Z,100.00
2022-10-01T17:36:45.675Z,100.00
2022-10-01T17:39:13.665Z,100.00
2022-10-01T17:41:41.678Z,100.00
2022-10-01T17:44:11.076Z,100.00
2022-10-01T17:46:39.045Z,100.00
2022-10-01T17:49:08.377Z,100.00
2022-10-01T17:51:36.841Z,100.00
2022-10-01T17:54:05.071Z,100.00
2022-10-01T17:56:33.407Z,100.00
2022-10-01T17:59:01.577Z,100.00
2022-10-01T18:01:31.421Z,100.00
2022-10-01T18:04:00.767Z,100.00
2022-10-01T18:06:29.646Z,100.00
2022-10-01T18:08:57.622Z,100.00
2022-10-01T18:11:26.683Z,100.00
2022-10-01T18:13:54.672Z,100.00
2022-10-01T18:16:23.776Z,100.00
2022-10-01T18:21:45.556Z,100.00
2022-10-01T18:24:13.577Z,100.00
2022-10-01T18:26:41.593Z,100.00
2022-10-01T18:29:09.627Z,100.00
2022-10-01T18:31:40.684Z,100.00
2022-10-01T18:34:19.429Z,100.00
2022-10-01T18:36:56.312Z,100.00
2022-10-01T18:39:29.918Z,100.00
2022-10-01T18:41:58.840Z,100.00
2022-10-01T18:44:27.535Z,100.00
2022-10-01T18:47:16.495Z,100.00
2022-10-01T18:50:11.507Z,100.00
2022-10-01T18:52:48.640Z,100.00
2022-10-01T18:55:47.877Z,100.00
2022-10-01T18:58:33.706Z,100.00
2022-10-01T19:01:11.959Z,100.00
2022-10-01T19:03:53.515Z,100.00
2022-10-01T19:06:43.621Z,100.00
2022-10-01T19:09:33.600Z,100.00
2022-10-01T19:12:18.086Z,100.00
2022-10-01T19:15:00.511Z,100.00
2022-10-01T19:17:50.220Z,100.00
2022-10-01T19:20:42.610Z,100.00
2022-10-01T19:23:51.395Z,100.00
2022-10-01T19:26:29.701Z,100.00
2022-10-01T19:29:12.828Z,100.00
2022-10-01T19:31:49.345Z,100.00
2022-10-01T19:34:22.928Z,100.00
2022-10-01T19:36:56.294Z,100.00
2022-10-01T19:39:27.593Z,100.00
2022-10-01T19:42:02.935Z,100.00
2022-10-01T19:44:36.706Z,100.00
2022-10-01T19:47:13.729Z,100.00
2022-10-01T19:49:44.890Z,100.00
2022-10-01T19:52:18.557Z,100.00
2022-10-01T19:54:52.665Z,100.00
2022-10-01T19:57:26.114Z,100.00
2022-10-01T20:00:12.842Z,100.00
2022-10-01T20:02:48.759Z,100.00
2022-10-01T20:05:22.095Z,100.00
2022-10-01T20:07:59.460Z,100.00
2022-10-01T20:10:34.057Z,100.00
2022-10-01T20:13:23.354Z,100.00
2022-10-01T20:16:01.187Z,100.00
2022-10-01T20:18:38.749Z,100.00
2022-10-01T20:21:23.487Z,100.00
2022-10-01T20:23:59.368Z,100.00
2022-10-01T20:26:38.798Z,100.00
2022-10-01T20:29:32.353Z,100.00
2022-10-01T20:32:08.952Z,100.00
2022-10-01T20:34:47.495Z,100.00
2022-10-01T20:37:35.161Z,100.00
2022-10-01T20:40:07.080Z,100.00
2022-10-01T20:42:44.304Z,100.00
2022-10-01T20:45:20.203Z,100.00
2022-10-01T20:47:55.949Z,100.00
2022-10-01T20:50:28.569Z,100.00
2022-10-01T20:53:14.247Z,100.00
2022-10-01T20:55:52.456Z,100.00
2022-10-01T20:58:24.824Z,100.00
2022-10-01T21:01:02.710Z,100.00
2022-10-01T21:06:22.620Z,100.00
2022-10-01T21:08:55.997Z,100.00
2022-10-01T21:11:34.023Z,100.00
2022-10-01T21:14:11.361Z,100.00
2022-10-01T21:17:18.872Z,100.00
2022-10-01T21:20:03.125Z,100.00
2022-10-01T21:22:46.738Z,100.00
2022-10-01T21:25:26.331Z,100.00
2022-10-01T21:28:31.372Z,100.00
2022-10-01T21:31:15.005Z,100.00
2022-10-01T21:33:54.608Z,100.00
2022-10-01T21:36:29.090Z,100.00
2022-10-01T21:39:04.152Z,100.00
2022-10-01T21:41:48.433Z,100.00
2022-10-01T21:44:56.294Z,100.00
2022-10-01T21:47:37.350Z,100.00
2022-10-01T21:50:24.266Z,100.00
2022-10-01T21:53:08.028Z,100.00
2022-10-01T21:55:59.013Z,100.00
2022-10-01T21:58:44.187Z,100.00
2022-10-01T22:01:21.880Z,100.00
2022-10-01T22:03:56.889Z,100.00
2022-10-01T22:06:33.446Z,100.00
2022-10-01T22:09:12.081Z,100.00
2022-10-01T22:11:47.224Z,100.00
2022-10-01T22:14:18.640Z,100.00
2022-10-01T22:16:53.248Z,100.00
2022-10-01T22:19:29.067Z,100.00
2022-10-01T22:22:05.105Z,100.00
2022-10-01T22:24:40.429Z,100.00
2022-10-01T22:27:13.529Z,100.00
2022-10-01T22:29:46.529Z,100.00
2022-10-01T22:32:18.687Z,100.00
2022-10-01T22:34:54.522Z,100.00
2022-10-01T22:37:30.596Z,100.00
2022-10-01T22:40:02.371Z,100.00
2022-10-01T22:42:35.589Z,100.00
2022-10-01T22:45:13.815Z,100.00
2022-10-01T22:47:58.420Z,100.00
2022-10-01T22:50:35.495Z,100.00
2022-10-01T22:53:19.514Z,100.00
2022-10-01T22:55:54.665Z,100.00
2022-10-01T22:58:46.718Z,100.00
2022-10-01T23:01:30.339Z,100.00
2022-10-01T23:04:16.690Z,100.00
2022-10-01T23:06:56.597Z,100.00
2022-10-01T23:09:31.825Z,100.00
2022-10-01T23:12:10.555Z,100.00
2022-10-01T23:14:58.505Z,100.00
2022-10-01T23:17:33.764Z,100.00
2022-10-01T23:20:17.336Z,100.00
2022-10-01T23:23:03.570Z,100.00
2022-10-01T23:25:45.287Z,100.00
2022-10-01T23:28:24.867Z,100.00
2022-10-01T23:31:01.867Z,100.00
2022-10-01T23:33:45.653Z,100.00
2022-10-01T23:36:29.572Z,100.00
2022-10-01T23:39:25.894Z,100.00
2022-10-01T23:42:02.252Z,100.00
2022-10-01T23:44:36.933Z,100.00
2022-10-01T23:47:11.123Z,100.00
2022-10-01T23:49:45.573Z,100.00
2022-10-01T23:52:20.670Z,100.00
2022-10-01T23:54:53.095Z,100.00
2022-10-01T23:57:28.663Z,100.00
